sensor_id;sensor_type;location;lat;lon;timestamp;temperature;humidity
33739;DHT22;20063;51.730;11.110;2022-12-24T00:01:21;10.40;99.90
33739;DHT22;20063;51.730;11.110;2022-12-24T00:03:47;10.40;99.90
33739;DHT22;20063;51.730;11.110;2022-12-24T00:06:19;10.40;99.90
33739;DHT22;20063;51.730;11.110;2022-12-24T00:08:45;10.40;99.90
33739;DHT22;20063;51.730;11.110;2022-12-24T00:11:11;10.40;99.90
33739;DHT22;20063;51.730;11.110;2022-12-24T00:13:36;10.40;99.90
33739;DHT22;20063;51.730;11.110;2022-12-24T00:16:02;10.40;99.90
33739;DHT22;20063;51.730;11.110;2022-12-24T00:18:27;10.40;99.90
33739;DHT22;20063;51.730;11.110;2022-12-24T00:20:53;10.30;99.90
33739;DHT22;20063;51.730;11.110;2022-12-24T00:23:20;10.30;99.90
33739;DHT22;20063;51.730;11.110;2022-12-24T00:25:46;10.30;99.90
33739;DHT22;20063;51.730;11.110;2022-12-24T00:28:12;10.30;99.90
33739;DHT22;20063;51.730;11.110;2022-12-24T00:30:39;10.30;99.90
33739;DHT22;20063;51.730;11.110;2022-12-24T00:33:06;10.30;99.90
33739;DHT22;20063;51.730;11.110;2022-12-24T00:35:35;10.40;99.90
33739;DHT22;20063;51.730;11.110;2022-12-24T00:38:01;10.40;99.90
33739;DHT22;20063;51.730;11.110;2022-12-24T00:40:28;10.40;99.90
33739;DHT22;20063;51.730;11.110;2022-12-24T00:42:56;10.40;99.90
33739;DHT22;20063;51.730;11.110;2022-12-24T00:45:21;10.40;99.90
33739;DHT22;20063;51.730;11.110;2022-12-24T00:47:47;10.40;99.90
33739;DHT22;20063;51.730;11.110;2022-12-24T00:50:13;10.40;99.90
33739;DHT22;20063;51.730;11.110;2022-12-24T00:52:39;10.40;99.90
33739;DHT22;20063;51.730;11.110;2022-12-24T00:55:05;10.40;99.90
33739;DHT22;20063;51.730;11.110;2022-12-24T00:57:30;10.40;99.90
33739;DHT22;20063;51.730;11.110;2022-12-24T00:59:56;10.30;99.90
33739;DHT22;20063;51.730;11.110;2022-12-24T01:02:22;10.30;99.90
33739;DHT22;20063;51.730;11.110;2022-12-24T01:04:48;10.30;99.90
33739;DHT22;20063;51.730;11.110;2022-12-24T01:07:32;10.30;99.90
33739;DHT22;20063;51.730;11.110;2022-12-24T01:09:58;10.30;99.90
33739;DHT22;20063;51.730;11.110;2022-12-24T01:12:23;10.30;99.90
33739;DHT22;20063;51.730;11.110;2022-12-24T01:14:49;10.20;99.90
33739;DHT22;20063;51.730;11.110;2022-12-24T01:17:15;10.20;99.90
33739;DHT22;20063;51.730;11.110;2022-12-24T01:19:41;10.20;99.90
33739;DHT22;20063;51.730;11.110;2022-12-24T01:22:07;10.20;99.90
33739;DHT22;20063;51.730;11.110;2022-12-24T01:24:32;10.20;99.90
33739;DHT22;20063;51.730;11.110;2022-12-24T01:26:58;10.20;99.90
33739;DHT22;20063;51.730;11.110;2022-12-24T01:29:23;10.20;99.90
33739;DHT22;20063;51.730;11.110;2022-12-24T01:31:49;10.20;99.90
33739;DHT22;20063;51.730;11.110;2022-12-24T01:34:15;10.10;99.90
33739;DHT22;20063;51.730;11.110;2022-12-24T01:36:40;10.20;99.90
33739;DHT22;20063;51.730;11.110;2022-12-24T01:39:06;10.20;99.90
33739;DHT22;20063;51.730;11.110;2022-12-24T01:41:32;10.20;99.90
33739;DHT22;20063;51.730;11.110;2022-12-24T01:46:45;10.10;99.90
33739;DHT22;20063;51.730;11.110;2022-12-24T01:49:13;10.20;99.90
33739;DHT22;20063;51.730;11.110;2022-12-24T01:51:45;10.20;99.90
33739;DHT22;20063;51.730;11.110;2022-12-24T01:54:16;10.20;99.90
33739;DHT22;20063;51.730;11.110;2022-12-24T01:59:37;10.20;99.90
33739;DHT22;20063;51.730;11.110;2022-12-24T02:02:06;10.30;99.90
33739;DHT22;20063;51.730;11.110;2022-12-24T02:07:19;10.30;99.90
33739;DHT22;20063;51.730;11.110;2022-12-24T02:09:45;10.40;99.90
33739;DHT22;20063;51.730;11.110;2022-12-24T02:12:11;10.30;99.90
33739;DHT22;20063;51.730;11.110;2022-12-24T02:14:37;10.30;99.90
33739;DHT22;20063;51.730;11.110;2022-12-24T02:19:56;10.30;99.90
33739;DHT22;20063;51.730;11.110;2022-12-24T02:22:32;10.30;99.90
33739;DHT22;20063;51.730;11.110;2022-12-24T02:25:37;10.20;99.90
33739;DHT22;20063;51.730;11.110;2022-12-24T02:30:42;10.20;99.90
33739;DHT22;20063;51.730;11.110;2022-12-24T02:35:53;10.30;99.90
33739;DHT22;20063;51.730;11.110;2022-12-24T02:38:36;10.20;99.90
33739;DHT22;20063;51.730;11.110;2022-12-24T02:41:13;10.20;99.90
33739;DHT22;20063;51.730;11.110;2022-12-24T02:43:43;10.20;99.90
33739;DHT22;20063;51.730;11.110;2022-12-24T02:46:16;10.10;99.90
33739;DHT22;20063;51.730;11.110;2022-12-24T02:48:45;10.00;99.90
33739;DHT22;20063;51.730;11.110;2022-12-24T02:51:12;10.00;99.90
33739;DHT22;20063;51.730;11.110;2022-12-24T02:53:38;10.00;99.90
33739;DHT22;20063;51.730;11.110;2022-12-24T03:04:47;10.10;99.90
33739;DHT22;20063;51.730;11.110;2022-12-24T03:07:21;10.10;99.90
33739;DHT22;20063;51.730;11.110;2022-12-24T03:12:56;10.00;99.90
33739;DHT22;20063;51.730;11.110;2022-12-24T03:15:24;10.00;99.90
33739;DHT22;20063;51.730;11.110;2022-12-24T03:17:52;10.00;99.90
33739;DHT22;20063;51.730;11.110;2022-12-24T03:20:26;10.00;99.90
33739;DHT22;20063;51.730;11.110;2022-12-24T03:22:52;9.90;99.90
33739;DHT22;20063;51.730;11.110;2022-12-24T03:25:19;9.90;99.90
33739;DHT22;20063;51.730;11.110;2022-12-24T03:27:48;10.00;99.90
33739;DHT22;20063;51.730;11.110;2022-12-24T03:30:15;10.00;99.90
33739;DHT22;20063;51.730;11.110;2022-12-24T03:32:42;10.00;99.90
33739;DHT22;20063;51.730;11.110;2022-12-24T03:35:08;10.00;99.90
33739;DHT22;20063;51.730;11.110;2022-12-24T03:37:35;10.00;99.90
33739;DHT22;20063;51.730;11.110;2022-12-24T03:40:00;10.00;99.90
33739;DHT22;20063;51.730;11.110;2022-12-24T03:42:26;9.90;99.90
33739;DHT22;20063;51.730;11.110;2022-12-24T03:44:51;9.90;99.90
33739;DHT22;20063;51.730;11.110;2022-12-24T03:47:17;9.90;99.90
33739;DHT22;20063;51.730;11.110;2022-12-24T03:49:43;9.90;99.90
33739;DHT22;20063;51.730;11.110;2022-12-24T03:52:08;9.90;99.90
33739;DHT22;20063;51.730;11.110;2022-12-24T03:54:34;9.90;99.90
33739;DHT22;20063;51.730;11.110;2022-12-24T03:56:59;9.90;99.90
33739;DHT22;20063;51.730;11.110;2022-12-24T03:59:25;9.90;99.90
33739;DHT22;20063;51.730;11.110;2022-12-24T04:01:52;9.90;99.90
33739;DHT22;20063;51.730;11.110;2022-12-24T04:04:17;9.90;99.90
33739;DHT22;20063;51.730;11.110;2022-12-24T04:06:43;9.90;99.90
33739;DHT22;20063;51.730;11.110;2022-12-24T04:09:08;9.90;99.90
33739;DHT22;20063;51.730;11.110;2022-12-24T04:11:34;9.90;99.90
33739;DHT22;20063;51.730;11.110;2022-12-24T04:13:59;9.90;99.90
33739;DHT22;20063;51.730;11.110;2022-12-24T04:16:25;9.80;99.90
33739;DHT22;20063;51.730;11.110;2022-12-24T04:18:51;9.80;99.90
33739;DHT22;20063;51.730;11.110;2022-12-24T04:21:16;9.90;99.90
33739;DHT22;20063;51.730;11.110;2022-12-24T04:23:42;9.90;99.90
33739;DHT22;20063;51.730;11.110;2022-12-24T04:26:10;9.80;99.90
33739;DHT22;20063;51.730;11.110;2022-12-24T04:28:36;9.80;99.90
33739;DHT22;20063;51.730;11.110;2022-12-24T04:31:06;9.90;99.90
33739;DHT22;20063;51.730;11.110;2022-12-24T04:33:33;9.90;99.90
33739;DHT22;20063;51.730;11.110;2022-12-24T04:36:00;9.90;99.90
33739;DHT22;20063;51.730;11.110;2022-12-24T04:38:26;9.90;99.90
33739;DHT22;20063;51.730;11.110;2022-12-24T04:41:03;9.80;99.90
33739;DHT22;20063;51.730;11.110;2022-12-24T04:43:29;9.80;99.90
33739;DHT22;20063;51.730;11.110;2022-12-24T04:45:56;9.70;99.90
33739;DHT22;20063;51.730;11.110;2022-12-24T04:48:27;9.70;99.90
33739;DHT22;20063;51.730;11.110;2022-12-24T04:50:53;9.70;99.90
33739;DHT22;20063;51.730;11.110;2022-12-24T04:53:19;9.70;99.90
33739;DHT22;20063;51.730;11.110;2022-12-24T04:55:45;9.70;99.90
33739;DHT22;20063;51.730;11.110;2022-12-24T04:58:11;9.70;99.90
33739;DHT22;20063;51.730;11.110;2022-12-24T05:00:38;9.60;99.90
33739;DHT22;20063;51.730;11.110;2022-12-24T05:03:04;9.60;99.90
33739;DHT22;20063;51.730;11.110;2022-12-24T05:05:29;9.60;99.90
33739;DHT22;20063;51.730;11.110;2022-12-24T05:07:55;9.60;99.90
33739;DHT22;20063;51.730;11.110;2022-12-24T05:10:20;9.60;99.90
33739;DHT22;20063;51.730;11.110;2022-12-24T05:12:46;9.60;99.90
33739;DHT22;20063;51.730;11.110;2022-12-24T05:15:12;9.60;99.90
33739;DHT22;20063;51.730;11.110;2022-12-24T05:17:38;9.60;99.90
33739;DHT22;20063;51.730;11.110;2022-12-24T05:20:05;9.60;99.90
33739;DHT22;20063;51.730;11.110;2022-12-24T05:22:31;9.60;99.90
33739;DHT22;20063;51.730;11.110;2022-12-24T05:25:17;9.60;99.90
33739;DHT22;20063;51.730;11.110;2022-12-24T05:28:01;9.60;99.90
33739;DHT22;20063;51.730;11.110;2022-12-24T05:30:26;9.60;99.90
33739;DHT22;20063;51.730;11.110;2022-12-24T05:32:52;9.60;99.90
33739;DHT22;20063;51.730;11.110;2022-12-24T05:35:17;9.50;99.90
33739;DHT22;20063;51.730;11.110;2022-12-24T05:37:43;9.50;99.90
33739;DHT22;20063;51.730;11.110;2022-12-24T05:40:09;9.50;99.90
33739;DHT22;20063;51.730;11.110;2022-12-24T05:42:34;9.50;99.90
33739;DHT22;20063;51.730;11.110;2022-12-24T05:45:01;9.50;99.90
33739;DHT22;20063;51.730;11.110;2022-12-24T05:47:27;9.50;99.90
33739;DHT22;20063;51.730;11.110;2022-12-24T05:49:52;9.50;99.90
33739;DHT22;20063;51.730;11.110;2022-12-24T05:52:18;9.50;99.90
33739;DHT22;20063;51.730;11.110;2022-12-24T05:54:43;9.60;99.90
33739;DHT22;20063;51.730;11.110;2022-12-24T05:57:09;9.60;99.90
33739;DHT22;20063;51.730;11.110;2022-12-24T05:59:37;9.60;99.90
33739;DHT22;20063;51.730;11.110;2022-12-24T06:02:03;9.60;99.90
33739;DHT22;20063;51.730;11.110;2022-12-24T06:04:28;9.60;99.90
33739;DHT22;20063;51.730;11.110;2022-12-24T06:06:54;9.60;99.90
33739;DHT22;20063;51.730;11.110;2022-12-24T06:09:19;9.50;99.90
33739;DHT22;20063;51.730;11.110;2022-12-24T06:11:47;9.50;99.90
33739;DHT22;20063;51.730;11.110;2022-12-24T06:14:12;9.50;99.90
33739;DHT22;20063;51.730;11.110;2022-12-24T06:16:38;9.50;99.90
33739;DHT22;20063;51.730;11.110;2022-12-24T06:19:03;9.50;99.90
33739;DHT22;20063;51.730;11.110;2022-12-24T06:21:29;9.50;99.90
33739;DHT22;20063;51.730;11.110;2022-12-24T06:23:55;9.50;99.90
33739;DHT22;20063;51.730;11.110;2022-12-24T06:26:22;9.50;99.90
33739;DHT22;20063;51.730;11.110;2022-12-24T06:28:49;9.60;99.90
33739;DHT22;20063;51.730;11.110;2022-12-24T06:31:17;9.50;99.90
33739;DHT22;20063;51.730;11.110;2022-12-24T06:33:43;9.40;99.90
33739;DHT22;20063;51.730;11.110;2022-12-24T06:36:13;9.40;99.90
33739;DHT22;20063;51.730;11.110;2022-12-24T06:38:39;9.40;99.90
33739;DHT22;20063;51.730;11.110;2022-12-24T06:41:06;9.30;99.90
33739;DHT22;20063;51.730;11.110;2022-12-24T06:43:32;9.30;99.90
33739;DHT22;20063;51.730;11.110;2022-12-24T06:46:02;9.30;99.90
33739;DHT22;20063;51.730;11.110;2022-12-24T06:48:27;9.20;99.90
33739;DHT22;20063;51.730;11.110;2022-12-24T06:50:53;9.20;99.90
33739;DHT22;20063;51.730;11.110;2022-12-24T06:53:18;9.20;99.90
33739;DHT22;20063;51.730;11.110;2022-12-24T06:55:44;9.20;99.90
33739;DHT22;20063;51.730;11.110;2022-12-24T06:58:10;9.20;99.90
33739;DHT22;20063;51.730;11.110;2022-12-24T07:00:38;9.20;99.90
33739;DHT22;20063;51.730;11.110;2022-12-24T07:03:04;9.20;99.90
33739;DHT22;20063;51.730;11.110;2022-12-24T07:05:29;9.20;99.90
33739;DHT22;20063;51.730;11.110;2022-12-24T07:07:55;9.20;99.90
33739;DHT22;20063;51.730;11.110;2022-12-24T07:10:21;9.20;99.90
33739;DHT22;20063;51.730;11.110;2022-12-24T07:12:47;9.20;99.90
33739;DHT22;20063;51.730;11.110;2022-12-24T07:15:14;9.20;99.90
33739;DHT22;20063;51.730;11.110;2022-12-24T07:17:40;9.20;99.90
33739;DHT22;20063;51.730;11.110;2022-12-24T07:20:09;9.10;99.90
33739;DHT22;20063;51.730;11.110;2022-12-24T07:22:35;9.10;99.90
33739;DHT22;20063;51.730;11.110;2022-12-24T07:25:01;9.10;99.90
33739;DHT22;20063;51.730;11.110;2022-12-24T07:27:27;9.00;99.90
33739;DHT22;20063;51.730;11.110;2022-12-24T07:29:52;9.00;99.90
33739;DHT22;20063;51.730;11.110;2022-12-24T07:32:18;9.00;99.90
33739;DHT22;20063;51.730;11.110;2022-12-24T07:34:45;8.90;99.90
33739;DHT22;20063;51.730;11.110;2022-12-24T07:37:12;8.90;99.90
33739;DHT22;20063;51.730;11.110;2022-12-24T07:39:37;8.90;99.90
33739;DHT22;20063;51.730;11.110;2022-12-24T07:42:03;8.90;99.90
33739;DHT22;20063;51.730;11.110;2022-12-24T07:44:32;8.90;99.90
33739;DHT22;20063;51.730;11.110;2022-12-24T07:46:58;8.90;99.90
33739;DHT22;20063;51.730;11.110;2022-12-24T07:49:23;8.90;99.90
33739;DHT22;20063;51.730;11.110;2022-12-24T07:51:49;8.90;99.90
33739;DHT22;20063;51.730;11.110;2022-12-24T07:54:14;8.90;99.90
33739;DHT22;20063;51.730;11.110;2022-12-24T07:56:41;8.90;99.90
33739;DHT22;20063;51.730;11.110;2022-12-24T07:59:08;8.90;99.90
33739;DHT22;20063;51.730;11.110;2022-12-24T08:01:37;8.90;99.90
33739;DHT22;20063;51.730;11.110;2022-12-24T08:04:02;8.90;99.90
33739;DHT22;20063;51.730;11.110;2022-12-24T08:06:28;8.90;99.90
33739;DHT22;20063;51.730;11.110;2022-12-24T08:08:53;8.90;99.90
33739;DHT22;20063;51.730;11.110;2022-12-24T08:11:19;8.90;99.90
33739;DHT22;20063;51.730;11.110;2022-12-24T08:13:44;8.90;99.90
33739;DHT22;20063;51.730;11.110;2022-12-24T08:16:13;8.90;99.90
33739;DHT22;20063;51.730;11.110;2022-12-24T08:18:39;8.90;99.90
33739;DHT22;20063;51.730;11.110;2022-12-24T08:21:08;8.90;99.90
33739;DHT22;20063;51.730;11.110;2022-12-24T08:23:35;9.00;99.90
33739;DHT22;20063;51.730;11.110;2022-12-24T08:26:07;9.00;99.90
33739;DHT22;20063;51.730;11.110;2022-12-24T08:28:33;9.00;99.90
33739;DHT22;20063;51.730;11.110;2022-12-24T08:30:58;9.00;99.90
33739;DHT22;20063;51.730;11.110;2022-12-24T08:33:24;9.00;99.90
33739;DHT22;20063;51.730;11.110;2022-12-24T08:35:52;9.00;99.90
33739;DHT22;20063;51.730;11.110;2022-12-24T08:38:18;9.00;99.90
33739;DHT22;20063;51.730;11.110;2022-12-24T08:40:44;9.00;99.90
33739;DHT22;20063;51.730;11.110;2022-12-24T08:43:13;9.10;99.90
33739;DHT22;20063;51.730;11.110;2022-12-24T08:45:39;9.10;99.90
33739;DHT22;20063;51.730;11.110;2022-12-24T08:48:07;9.10;99.90
33739;DHT22;20063;51.730;11.110;2022-12-24T08:50:33;9.10;99.90
33739;DHT22;20063;51.730;11.110;2022-12-24T08:52:59;9.20;99.90
33739;DHT22;20063;51.730;11.110;2022-12-24T08:55:25;9.20;99.90
33739;DHT22;20063;51.730;11.110;2022-12-24T08:57:50;9.30;99.90
33739;DHT22;20063;51.730;11.110;2022-12-24T09:00:16;9.30;99.90
33739;DHT22;20063;51.730;11.110;2022-12-24T09:02:42;9.30;99.90
33739;DHT22;20063;51.730;11.110;2022-12-24T09:05:08;9.30;99.90
33739;DHT22;20063;51.730;11.110;2022-12-24T09:07:33;9.40;99.90
33739;DHT22;20063;51.730;11.110;2022-12-24T09:09:59;9.40;99.90
33739;DHT22;20063;51.730;11.110;2022-12-24T09:12:24;9.40;99.90
33739;DHT22;20063;51.730;11.110;2022-12-24T09:14:51;9.40;99.90
33739;DHT22;20063;51.730;11.110;2022-12-24T09:17:19;9.40;99.90
33739;DHT22;20063;51.730;11.110;2022-12-24T09:19:44;9.50;99.90
33739;DHT22;20063;51.730;11.110;2022-12-24T09:22:10;9.40;99.90
33739;DHT22;20063;51.730;11.110;2022-12-24T09:24:36;9.40;99.90
33739;DHT22;20063;51.730;11.110;2022-12-24T09:27:02;9.50;99.90
33739;DHT22;20063;51.730;11.110;2022-12-24T09:29:29;9.50;99.90
33739;DHT22;20063;51.730;11.110;2022-12-24T09:31:54;9.50;99.90
33739;DHT22;20063;51.730;11.110;2022-12-24T09:34:20;9.60;99.90
33739;DHT22;20063;51.730;11.110;2022-12-24T09:36:46;9.60;99.90
33739;DHT22;20063;51.730;11.110;2022-12-24T09:39:11;9.60;99.90
33739;DHT22;20063;51.730;11.110;2022-12-24T09:41:46;9.60;99.90
33739;DHT22;20063;51.730;11.110;2022-12-24T09:46:52;9.70;99.90
33739;DHT22;20063;51.730;11.110;2022-12-24T09:49:22;9.70;99.90
33739;DHT22;20063;51.730;11.110;2022-12-24T09:51:54;9.70;99.90
33739;DHT22;20063;51.730;11.110;2022-12-24T09:54:33;9.80;99.90
33739;DHT22;20063;51.730;11.110;2022-12-24T09:57:07;9.80;99.90
33739;DHT22;20063;51.730;11.110;2022-12-24T09:59:43;9.80;99.90
33739;DHT22;20063;51.730;11.110;2022-12-24T10:02:19;9.80;99.90
33739;DHT22;20063;51.730;11.110;2022-12-24T10:04:45;9.80;99.90
33739;DHT22;20063;51.730;11.110;2022-12-24T10:10:20;9.90;99.90
33739;DHT22;20063;51.730;11.110;2022-12-24T10:15:49;9.90;99.90
33739;DHT22;20063;51.730;11.110;2022-12-24T10:23:21;9.80;99.90
33739;DHT22;20063;51.730;11.110;2022-12-24T10:28:55;9.80;99.90
33739;DHT22;20063;51.730;11.110;2022-12-24T10:31:44;9.90;99.90
33739;DHT22;20063;51.730;11.110;2022-12-24T10:34:22;10.00;99.90
33739;DHT22;20063;51.730;11.110;2022-12-24T10:36:48;10.00;99.90
33739;DHT22;20063;51.730;11.110;2022-12-24T10:39:22;10.00;99.90
33739;DHT22;20063;51.730;11.110;2022-12-24T10:41:51;10.00;99.90
33739;DHT22;20063;51.730;11.110;2022-12-24T10:44:20;10.00;99.90
33739;DHT22;20063;51.730;11.110;2022-12-24T10:46:47;9.90;99.90
33739;DHT22;20063;51.730;11.110;2022-12-24T10:49:19;9.90;99.90
33739;DHT22;20063;51.730;11.110;2022-12-24T10:52:03;10.00;99.90
33739;DHT22;20063;51.730;11.110;2022-12-24T10:54:29;9.90;99.90
33739;DHT22;20063;51.730;11.110;2022-12-24T10:57:04;9.90;99.90
33739;DHT22;20063;51.730;11.110;2022-12-24T10:59:48;9.90;99.90
33739;DHT22;20063;51.730;11.110;2022-12-24T11:02:27;9.90;99.90
33739;DHT22;20063;51.730;11.110;2022-12-24T11:04:53;9.90;99.90
33739;DHT22;20063;51.730;11.110;2022-12-24T11:07:21;9.90;99.90
33739;DHT22;20063;51.730;11.110;2022-12-24T11:10:22;9.90;99.90
33739;DHT22;20063;51.730;11.110;2022-12-24T11:12:48;9.90;99.90
33739;DHT22;20063;51.730;11.110;2022-12-24T11:15:24;10.00;99.90
33739;DHT22;20063;51.730;11.110;2022-12-24T11:18:01;10.00;99.90
33739;DHT22;20063;51.730;11.110;2022-12-24T11:20:31;10.00;99.90
33739;DHT22;20063;51.730;11.110;2022-12-24T11:22:58;10.00;99.90
33739;DHT22;20063;51.730;11.110;2022-12-24T11:25:26;10.00;99.90
33739;DHT22;20063;51.730;11.110;2022-12-24T11:28:10;10.00;99.90
33739;DHT22;20063;51.730;11.110;2022-12-24T11:30:37;10.10;99.90
33739;DHT22;20063;51.730;11.110;2022-12-24T11:35:31;10.10;99.90
33739;DHT22;20063;51.730;11.110;2022-12-24T11:40:32;10.00;99.90
33739;DHT22;20063;51.730;11.110;2022-12-24T11:43:00;10.00;99.90
33739;DHT22;20063;51.730;11.110;2022-12-24T11:45:29;10.00;99.90
33739;DHT22;20063;51.730;11.110;2022-12-24T11:47:56;10.00;99.90
33739;DHT22;20063;51.730;11.110;2022-12-24T11:50:28;10.00;99.90
33739;DHT22;20063;51.730;11.110;2022-12-24T11:55:44;10.10;99.90
33739;DHT22;20063;51.730;11.110;2022-12-24T11:58:42;10.20;99.90
33739;DHT22;20063;51.730;11.110;2022-12-24T12:01:22;10.20;99.90
33739;DHT22;20063;51.730;11.110;2022-12-24T12:03:54;10.30;99.90
33739;DHT22;20063;51.730;11.110;2022-12-24T12:09:05;10.30;99.90
33739;DHT22;20063;51.730;11.110;2022-12-24T12:11:34;10.20;99.90
33739;DHT22;20063;51.730;11.110;2022-12-24T12:14:03;10.10;99.90
33739;DHT22;20063;51.730;11.110;2022-12-24T12:16:39;10.00;99.90
33739;DHT22;20063;51.730;11.110;2022-12-24T12:19:44;9.90;99.90
33739;DHT22;20063;51.730;11.110;2022-12-24T12:25:04;9.60;99.90
33739;DHT22;20063;51.730;11.110;2022-12-24T12:27:54;9.50;99.90
33739;DHT22;20063;51.730;11.110;2022-12-24T12:30:21;9.40;99.90
33739;DHT22;20063;51.730;11.110;2022-12-24T12:35:32;9.30;99.90
33739;DHT22;20063;51.730;11.110;2022-12-24T12:38:08;9.40;99.90
33739;DHT22;20063;51.730;11.110;2022-12-24T12:41:05;9.30;99.90
33739;DHT22;20063;51.730;11.110;2022-12-24T12:55:21;9.30;99.90
33739;DHT22;20063;51.730;11.110;2022-12-24T12:57:49;9.30;99.90
33739;DHT22;20063;51.730;11.110;2022-12-24T13:00:18;9.30;99.90
33739;DHT22;20063;51.730;11.110;2022-12-24T13:03:27;9.40;99.90
33739;DHT22;20063;51.730;11.110;2022-12-24T13:06:02;9.50;99.90
33739;DHT22;20063;51.730;11.110;2022-12-24T13:08:47;9.60;99.90
33739;DHT22;20063;51.730;11.110;2022-12-24T13:22:00;10.00;99.90
33739;DHT22;20063;51.730;11.110;2022-12-24T13:24:30;10.10;99.90
33739;DHT22;20063;51.730;11.110;2022-12-24T13:27:23;10.20;99.90
33739;DHT22;20063;51.730;11.110;2022-12-24T13:30:36;10.20;99.90
33739;DHT22;20063;51.730;11.110;2022-12-24T13:32:50;10.20;99.90
33739;DHT22;20063;51.730;11.110;2022-12-24T13:37:49;10.20;99.90
33739;DHT22;20063;51.730;11.110;2022-12-24T13:43:05;10.20;99.90
33739;DHT22;20063;51.730;11.110;2022-12-24T13:53:37;10.10;99.90
33739;DHT22;20063;51.730;11.110;2022-12-24T13:58:29;10.00;99.90
33739;DHT22;20063;51.730;11.110;2022-12-24T14:00:59;10.00;99.90
33739;DHT22;20063;51.730;11.110;2022-12-24T14:03:48;9.90;99.90
33739;DHT22;20063;51.730;11.110;2022-12-24T14:06:35;9.80;99.90
33739;DHT22;20063;51.730;11.110;2022-12-24T14:09:29;9.80;99.90
33739;DHT22;20063;51.730;11.110;2022-12-24T14:14:44;9.80;99.90
33739;DHT22;20063;51.730;11.110;2022-12-24T14:17:20;9.80;99.90
33739;DHT22;20063;51.730;11.110;2022-12-24T14:19:59;9.90;99.90
33739;DHT22;20063;51.730;11.110;2022-12-24T14:22:43;9.90;99.90
33739;DHT22;20063;51.730;11.110;2022-12-24T14:25:20;10.00;99.90
33739;DHT22;20063;51.730;11.110;2022-12-24T14:30:23;10.00;99.90
33739;DHT22;20063;51.730;11.110;2022-12-24T14:32:50;10.00;99.90
33739;DHT22;20063;51.730;11.110;2022-12-24T14:35:25;10.00;99.90
33739;DHT22;20063;51.730;11.110;2022-12-24T14:38:07;9.90;99.90
33739;DHT22;20063;51.730;11.110;2022-12-24T14:51:21;9.90;99.90
33739;DHT22;20063;51.730;11.110;2022-12-24T14:56:30;9.70;99.90
33739;DHT22;20063;51.730;11.110;2022-12-24T14:58:55;9.60;99.90
33739;DHT22;20063;51.730;11.110;2022-12-24T15:01:28;9.60;99.90
33739;DHT22;20063;51.730;11.110;2022-12-24T15:04:16;9.50;99.90
33739;DHT22;20063;51.730;11.110;2022-12-24T15:06:43;9.50;99.90
33739;DHT22;20063;51.730;11.110;2022-12-24T15:11:51;9.50;99.90
33739;DHT22;20063;51.730;11.110;2022-12-24T15:14:18;9.50;99.90
33739;DHT22;20063;51.730;11.110;2022-12-24T15:17:04;9.50;99.90
33739;DHT22;20063;51.730;11.110;2022-12-24T15:19:36;9.50;99.90
33739;DHT22;20063;51.730;11.110;2022-12-24T15:22:08;9.50;99.90
33739;DHT22;20063;51.730;11.110;2022-12-24T15:24:43;9.50;99.90
33739;DHT22;20063;51.730;11.110;2022-12-24T15:27:18;9.50;99.90
33739;DHT22;20063;51.730;11.110;2022-12-24T15:29:46;9.50;99.90
33739;DHT22;20063;51.730;11.110;2022-12-24T15:32:14;9.50;99.90
33739;DHT22;20063;51.730;11.110;2022-12-24T15:34:43;9.60;99.90
33739;DHT22;20063;51.730;11.110;2022-12-24T15:37:24;9.60;99.90
33739;DHT22;20063;51.730;11.110;2022-12-24T15:40:08;9.70;99.90
33739;DHT22;20063;51.730;11.110;2022-12-24T15:42:34;9.70;99.90
33739;DHT22;20063;51.730;11.110;2022-12-24T15:47:35;9.70;99.90
33739;DHT22;20063;51.730;11.110;2022-12-24T15:50:15;9.70;99.90
33739;DHT22;20063;51.730;11.110;2022-12-24T15:52:43;9.60;99.90
33739;DHT22;20063;51.730;11.110;2022-12-24T15:57:55;9.70;99.90
33739;DHT22;20063;51.730;11.110;2022-12-24T16:00:27;9.60;99.90
33739;DHT22;20063;51.730;11.110;2022-12-24T16:03:17;9.60;99.90
33739;DHT22;20063;51.730;11.110;2022-12-24T16:05:43;9.60;99.90
33739;DHT22;20063;51.730;11.110;2022-12-24T16:10:45;9.60;99.90
33739;DHT22;20063;51.730;11.110;2022-12-24T16:13:21;9.60;99.90
33739;DHT22;20063;51.730;11.110;2022-12-24T16:15:53;9.50;99.90
33739;DHT22;20063;51.730;11.110;2022-12-24T16:18:31;9.50;99.90
33739;DHT22;20063;51.730;11.110;2022-12-24T16:20:57;9.50;99.90
33739;DHT22;20063;51.730;11.110;2022-12-24T16:23:25;9.50;99.90
33739;DHT22;20063;51.730;11.110;2022-12-24T16:25:53;9.40;99.90
33739;DHT22;20063;51.730;11.110;2022-12-24T16:28:19;9.40;99.90
33739;DHT22;20063;51.730;11.110;2022-12-24T16:30:47;9.30;99.90
33739;DHT22;20063;51.730;11.110;2022-12-24T16:33:15;9.30;99.90
33739;DHT22;20063;51.730;11.110;2022-12-24T16:35:41;9.20;99.90
33739;DHT22;20063;51.730;11.110;2022-12-24T16:38:07;9.10;99.90
33739;DHT22;20063;51.730;11.110;2022-12-24T16:40:33;9.10;99.90
33739;DHT22;20063;51.730;11.110;2022-12-24T16:42:59;9.10;99.90
33739;DHT22;20063;51.730;11.110;2022-12-24T16:45:44;9.00;99.90
33739;DHT22;20063;51.730;11.110;2022-12-24T16:48:17;9.00;99.90
33739;DHT22;20063;51.730;11.110;2022-12-24T16:50:44;9.00;99.90
33739;DHT22;20063;51.730;11.110;2022-12-24T16:53:19;8.90;99.90
33739;DHT22;20063;51.730;11.110;2022-12-24T16:55:46;8.90;99.90
33739;DHT22;20063;51.730;11.110;2022-12-24T16:58:13;8.80;99.90
33739;DHT22;20063;51.730;11.110;2022-12-24T17:00:40;8.80;99.90
33739;DHT22;20063;51.730;11.110;2022-12-24T17:03:06;8.70;99.90
33739;DHT22;20063;51.730;11.110;2022-12-24T17:05:33;8.70;99.90
33739;DHT22;20063;51.730;11.110;2022-12-24T17:08:01;8.60;99.90
33739;DHT22;20063;51.730;11.110;2022-12-24T17:10:27;8.60;99.90
33739;DHT22;20063;51.730;11.110;2022-12-24T17:12:54;8.60;99.90
33739;DHT22;20063;51.730;11.110;2022-12-24T17:15:20;8.50;99.90
33739;DHT22;20063;51.730;11.110;2022-12-24T17:17:46;8.60;99.90
33739;DHT22;20063;51.730;11.110;2022-12-24T17:20:12;8.50;99.90
33739;DHT22;20063;51.730;11.110;2022-12-24T17:22:38;8.50;99.90
33739;DHT22;20063;51.730;11.110;2022-12-24T17:25:05;8.50;99.90
33739;DHT22;20063;51.730;11.110;2022-12-24T17:27:31;8.60;99.90
33739;DHT22;20063;51.730;11.110;2022-12-24T17:29:56;8.60;99.90
33739;DHT22;20063;51.730;11.110;2022-12-24T17:32:23;8.60;99.90
33739;DHT22;20063;51.730;11.110;2022-12-24T17:34:49;8.50;99.90
33739;DHT22;20063;51.730;11.110;2022-12-24T17:37:14;8.50;99.90
33739;DHT22;20063;51.730;11.110;2022-12-24T17:39:40;8.50;99.90
33739;DHT22;20063;51.730;11.110;2022-12-24T17:42:05;8.50;99.90
33739;DHT22;20063;51.730;11.110;2022-12-24T17:44:31;8.30;99.90
33739;DHT22;20063;51.730;11.110;2022-12-24T17:46:57;8.30;99.90